Time;durP1;ratioP1;P1;durP2;ratioP2;P2;SDS_P1;SDS_P2;PMS_P1;PMS_P2;Temp;Humidity;BMP_temperature;BMP_pressure;BME280_temperature;BME280_humidity;BME280_pressure;Samples;Min_cycle;Max_cycle;Signal;HPM_P1;HPM_P2
2023/02/16 00:00:31;;;;;;;3.45;1.80;;;-2.90;96.90;;;;;;4991735;28;20018;-75
2023/02/16 00:02:57;;;;;;;2.45;2.25;;;-2.80;96.60;;;;;;4987262;28;20026;-74
2023/02/16 00:05:30;;;;;;;2.63;1.67;;;-2.80;96.50;;;;;;4995143;28;20157;-73
2023/02/16 00:07:57;;;;;;;3.97;2.22;;;-2.80;96.60;;;;;;4995297;28;20387;-75
2023/02/16 00:10:25;;;;;;;6.07;2.47;;;-2.90;96.50;;;;;;4993846;28;20036;-78
2023/02/16 00:15:36;;;;;;;2.13;1.75;;;-2.80;96.50;;;;;;4995184;28;20104;-77
2023/02/16 00:18:09;;;;;;;4.15;1.80;;;-2.80;96.40;;;;;;4995522;28;20105;-76
2023/02/16 00:20:36;;;;;;;3.00;2.03;;;-2.80;96.30;;;;;;4994618;28;20396;-76
2023/02/16 00:23:01;;;;;;;3.42;1.83;;;-2.70;96.20;;;;;;4992346;28;20030;-75
2023/02/16 00:25:27;;;;;;;1.40;1.30;;;-2.80;96.00;;;;;;4990652;28;20053;-76
2023/02/16 00:27:53;;;;;;;3.42;1.40;;;-2.80;96.00;;;;;;4985951;28;20364;-77
2023/02/16 00:30:21;;;;;;;2.55;1.65;;;-2.80;96.10;;;;;;4984223;28;20026;-77
2023/02/16 00:32:46;;;;;;;2.55;1.70;;;-2.80;96.00;;;;;;5009799;28;20026;-78
2023/02/16 00:35:17;;;;;;;2.65;1.67;;;-2.80;96.00;;;;;;4995136;28;20181;-78
2023/02/16 00:37:42;;;;;;;2.00;1.30;;;-2.80;95.90;;;;;;4988906;28;20023;-77
2023/02/16 00:40:09;;;;;;;1.95;1.30;;;-2.80;95.90;;;;;;4980498;28;20033;-78
2023/02/16 00:42:35;;;;;;;2.30;1.50;;;-2.80;95.80;;;;;;4990177;28;20242;-77
2023/02/16 00:45:01;;;;;;;1.40;1.20;;;-2.90;95.70;;;;;;4994701;28;20030;-76
2023/02/16 00:47:37;;;;;;;1.55;1.25;;;-2.90;95.80;;;;;;4992400;28;20034;-77
2023/02/16 00:50:26;;;;;;;3.88;1.58;;;-2.90;96.00;;;;;;4990577;28;20441;-78
2023/02/16 00:52:52;;;;;;;1.20;1.08;;;-3.00;96.00;;;;;;4982377;28;20105;-77
2023/02/16 00:55:22;;;;;;;3.08;1.70;;;-3.00;96.10;;;;;;4992141;28;20026;-78
2023/02/16 00:58:06;;;;;;;1.63;1.20;;;-3.00;96.20;;;;;;4989307;28;20026;-79
2023/02/16 01:00:38;;;;;;;2.33;1.58;;;-3.00;96.30;;;;;;4985200;28;20022;-77
2023/02/16 01:03:08;;;;;;;1.85;1.35;;;-3.00;96.50;;;;;;4992412;28;20022;-77
2023/02/16 01:05:34;;;;;;;1.55;1.08;;;-3.10;96.50;;;;;;4992334;28;20403;-77
2023/02/16 01:13:35;;;;;;;2.85;2.03;;;-3.10;96.30;;;;;;4990186;28;20069;-75
2023/02/16 01:16:01;;;;;;;1.73;1.45;;;-3.10;96.30;;;;;;4990885;28;20161;-76
2023/02/16 01:18:27;;;;;;;1.92;1.33;;;-3.10;96.30;;;;;;4990270;28;20113;-78
2023/02/16 01:20:53;;;;;;;2.00;1.83;;;-3.00;96.40;;;;;;4989451;28;20100;-78
2023/02/16 01:23:18;;;;;;;2.15;1.42;;;-3.00;96.20;;;;;;4985779;28;20035;-78
2023/02/16 01:25:44;;;;;;;1.70;1.15;;;-3.10;96.00;;;;;;4992647;28;21385;-78
2023/02/16 01:28:22;;;;;;;2.15;1.35;;;-3.20;96.00;;;;;;5013231;28;20014;-77
2023/02/16 01:30:49;;;;;;;2.20;1.45;;;-3.20;96.10;;;;;;4989246;28;20018;-78
2023/02/16 01:33:16;;;;;;;1.70;1.30;;;-3.20;96.20;;;;;;4989357;28;20033;-78
2023/02/16 01:35:42;;;;;;;2.13;1.45;;;-3.20;96.30;;;;;;4988524;28;20144;-78
2023/02/16 01:38:22;;;;;;;1.70;1.20;;;-3.20;96.40;;;;;;4983674;28;20041;-77
2023/02/16 01:41:06;;;;;;;1.65;1.10;;;-3.10;96.50;;;;;;4989527;28;20109;-78
2023/02/16 01:43:32;;;;;;;1.00;1.00;;;-3.10;96.50;;;;;;4984588;28;20110;-79
2023/02/16 01:46:14;;;;;;;1.42;1.05;;;-3.10;96.30;;;;;;4993838;28;20405;-76
2023/02/16 01:48:39;;;;;;;1.50;1.40;;;-3.10;96.50;;;;;;4982741;28;20077;-77
2023/02/16 01:51:23;;;;;;;2.03;1.52;;;-3.10;96.10;;;;;;4990393;28;20468;-78
2023/02/16 01:54:01;;;;;;;1.88;1.23;;;-3.10;96.20;;;;;;4992621;28;20018;-79
2023/02/16 01:56:34;;;;;;;2.95;1.40;;;-3.10;96.20;;;;;;4991392;28;20066;-78
2023/02/16 01:59:12;;;;;;;3.30;1.02;;;-3.00;96.20;;;;;;4982898;28;20046;-77
2023/02/16 02:01:56;;;;;;;2.78;1.70;;;-3.00;96.30;;;;;;4991590;28;20038;-77
2023/02/16 02:07:38;;;;;;;2.08;1.35;;;-3.00;96.30;;;;;;4986547;28;20510;-78
2023/02/16 02:10:41;;;;;;;1.90;1.50;;;-3.00;96.30;;;;;;4987332;28;20022;-78
2023/02/16 02:13:16;;;;;;;2.55;1.35;;;-3.00;96.20;;;;;;4978403;28;20029;-75
2023/02/16 02:15:42;;;;;;;2.42;1.40;;;-3.10;96.20;;;;;;4989594;28;20507;-78
2023/02/16 02:18:08;;;;;;;5.00;2.15;;;-3.10;96.20;;;;;;4982621;28;20031;-76
2023/02/16 02:24:22;;;;;;;2.08;1.83;;;-3.10;96.10;;;;;;4988747;28;20053;-77
2023/02/16 02:26:47;;;;;;;6.78;1.92;;;-3.00;96.10;;;;;;4987073;28;20027;-79
2023/02/16 02:29:39;;;;;;;4.80;1.70;;;-3.00;96.20;;;;;;4987911;28;20022;-78
2023/02/16 02:32:17;;;;;;;1.77;1.63;;;-3.00;96.20;;;;;;4988182;28;20050;-76
2023/02/16 02:34:51;;;;;;;1.50;1.40;;;-2.90;96.10;;;;;;4977123;28;20022;-77
2023/02/16 02:37:23;;;;;;;4.07;2.08;;;-3.00;96.20;;;;;;4992820;28;20384;-77
2023/02/16 02:40:05;;;;;;;1.48;1.23;;;-3.00;96.20;;;;;;4984581;28;20019;-76
2023/02/16 02:42:33;;;;;;;1.65;1.30;;;-3.10;96.30;;;;;;4986301;28;20030;-76
2023/02/16 02:45:30;;;;;;;3.03;1.25;;;-3.10;96.50;;;;;;4991753;28;20034;-77
2023/02/16 02:47:56;;;;;;;;;;;-3.20;96.60;;;;;;4979514;28;20037;-76
2023/02/16 02:50:36;;;;;;;1.73;1.25;;;-3.30;96.60;;;;;;4987928;28;19910;-77
2023/02/16 02:53:14;;;;;;;2.17;1.40;;;-3.40;97.00;;;;;;4991352;28;20476;-78
2023/02/16 03:01:20;;;;;;;3.50;1.50;;;-3.40;97.70;;;;;;4989387;28;20458;-78
2023/02/16 03:03:52;;;;;;;2.67;1.70;;;-3.40;97.90;;;;;;4992349;28;20041;-78
2023/02/16 03:06:20;;;;;;;3.15;2.10;;;-3.40;98.00;;;;;;4992337;28;20033;-75
2023/02/16 03:08:47;;;;;;;;;;;-3.30;98.10;;;;;;4992739;28;20054;-77
2023/02/16 03:14:22;;;;;;;4.03;1.40;;;-3.50;97.90;;;;;;4992452;28;19968;-77
2023/02/16 03:30:49;;;;;;;4.25;2.45;;;-3.60;98.40;;;;;;4992173;28;20034;-77
2023/02/16 03:33:15;;;;;;;2.08;1.88;;;-3.60;98.40;;;;;;4992241;28;20026;-78
2023/02/16 03:35:42;;;;;;;2.97;1.83;;;-3.50;98.40;;;;;;4992149;28;20019;-76
2023/02/16 03:38:08;;;;;;;2.42;1.85;;;-3.50;98.40;;;;;;4992969;28;20025;-77
2023/02/16 03:40:35;;;;;;;2.58;1.63;;;-3.50;98.40;;;;;;4996610;28;20042;-77
2023/02/16 03:43:05;;;;;;;2.85;1.95;;;-3.50;98.50;;;;;;4995985;28;20017;-78
2023/02/16 03:45:33;;;;;;;3.15;2.40;;;-3.40;98.50;;;;;;4995904;28;20516;-77
2023/02/16 03:47:59;;;;;;;3.63;1.83;;;-3.40;98.40;;;;;;4995619;28;20022;-76
2023/02/16 03:50:26;;;;;;;2.72;1.77;;;-3.40;98.30;;;;;;4994347;28;20052;-77
2023/02/16 03:53:05;;;;;;;5.95;2.67;;;-3.30;98.30;;;;;;4995692;28;20058;-77
2023/02/16 03:55:32;;;;;;;2.08;1.80;;;-3.30;98.40;;;;;;4995319;28;20058;-77
2023/02/16 03:57:58;;;;;;;3.83;1.98;;;-3.20;98.10;;;;;;4994365;28;20023;-78
2023/02/16 04:00:24;;;;;;;4.18;1.90;;;-3.10;98.00;;;;;;4995532;28;20060;-77
2023/02/16 04:02:50;;;;;;;4.68;1.77;;;-3.10;97.60;;;;;;4995359;28;20042;-78
2023/02/16 04:05:16;;;;;;;2.80;1.90;;;-3.10;97.50;;;;;;4995139;28;20034;-77
2023/02/16 04:07:42;;;;;;;3.17;2.08;;;-3.10;97.40;;;;;;4995417;28;20026;-78
2023/02/16 04:10:08;;;;;;;4.65;1.85;;;-3.10;97.20;;;;;;4991762;28;20019;-75
2023/02/16 04:12:37;;;;;;;3.35;2.08;;;-3.10;97.20;;;;;;4995448;28;20077;-76
2023/02/16 04:15:11;;;;;;;3.10;2.05;;;-3.10;97.20;;;;;;4994004;28;20037;-76
2023/02/16 04:17:37;;;;;;;5.43;2.55;;;-3.10;96.90;;;;;;4983386;28;20030;-77
2023/02/16 04:20:05;;;;;;;2.88;2.03;;;-3.20;96.90;;;;;;4995228;28;20037;-76
2023/02/16 04:22:30;;;;;;;1.40;1.30;;;-3.30;96.90;;;;;;4995176;28;20392;-77
2023/02/16 04:24:56;;;;;;;2.63;1.70;;;-3.30;97.00;;;;;;4995132;28;20041;-74
2023/02/16 04:27:25;;;;;;;1.55;1.45;;;-3.30;97.20;;;;;;4995048;28;20023;-75
2023/02/16 04:29:51;;;;;;;2.15;1.80;;;-3.30;97.20;;;;;;4995103;28;20443;-78
2023/02/16 04:32:17;;;;;;;2.88;1.65;;;-3.30;97.00;;;;;;4994799;28;20019;-77
2023/02/16 04:34:43;;;;;;;3.28;2.50;;;-3.30;96.90;;;;;;4995080;28;20361;-75
2023/02/16 04:37:09;;;;;;;3.13;1.60;;;-3.40;97.00;;;;;;4994847;28;20019;-77
2023/02/16 04:39:35;;;;;;;1.88;1.50;;;-3.40;97.00;;;;;;4995303;28;20045;-77
2023/02/16 04:42:01;;;;;;;2.22;1.45;;;-3.40;97.10;;;;;;4994683;28;20066;-77
2023/02/16 04:44:27;;;;;;;1.75;1.35;;;-3.40;97.10;;;;;;4994600;28;20042;-77
2023/02/16 04:46:53;;;;;;;2.22;1.73;;;-3.40;97.10;;;;;;4994772;28;20431;-77
2023/02/16 04:49:18;;;;;;;3.85;1.98;;;-3.40;97.20;;;;;;4993364;28;20045;-77
2023/02/16 04:51:44;;;;;;;2.67;1.25;;;-3.40;97.10;;;;;;4993736;28;20022;-77
2023/02/16 04:54:10;;;;;;;2.58;1.88;;;-3.40;97.00;;;;;;4994536;28;20027;-78
2023/02/16 04:56:36;;;;;;;2.05;1.48;;;-3.40;97.10;;;;;;4994293;28;20053;-77
2023/02/16 04:59:02;;;;;;;4.40;2.13;;;-3.30;97.10;;;;;;4994679;28;20031;-78
2023/02/16 05:01:30;;;;;;;3.35;1.73;;;-3.30;96.90;;;;;;4994484;28;20451;-78
2023/02/16 05:03:56;;;;;;;3.38;1.70;;;-3.40;96.90;;;;;;4994177;28;20026;-76
2023/02/16 05:06:22;;;;;;;4.03;2.08;;;-3.40;96.90;;;;;;4992814;28;20059;-78
2023/02/16 05:08:48;;;;;;;2.38;1.80;;;-3.40;96.90;;;;;;4993899;28;20023;-77
2023/02/16 05:16:44;;;;;;;5.30;2.10;;;-3.40;97.10;;;;;;4994518;28;20089;-78
2023/02/16 05:19:10;;;;;;;3.13;2.40;;;-3.40;97.20;;;;;;4994235;28;20555;-77
2023/02/16 05:21:36;;;;;;;2.33;1.88;;;-3.40;97.30;;;;;;4993198;28;20046;-78
2023/02/16 05:24:05;;;;;;;4.63;2.92;;;-3.30;97.40;;;;;;4993892;28;20100;-77
2023/02/16 05:26:32;;;;;;;3.75;2.83;;;-3.30;97.30;;;;;;4993853;28;20072;-77
2023/02/16 05:28:59;;;;;;;5.75;3.42;;;-3.20;97.30;;;;;;4993986;28;20097;-78
2023/02/16 05:31:26;;;;;;;6.32;3.17;;;-3.20;97.30;;;;;;4991606;28;20041;-77
2023/02/16 05:33:52;;;;;;;6.60;3.25;;;-3.20;97.30;;;;;;4993897;28;20666;-77
2023/02/16 05:36:18;;;;;;;4.95;3.60;;;-3.20;97.20;;;;;;4992440;28;20421;-77
2023/02/16 05:38:44;;;;;;;5.95;3.83;;;-3.20;97.10;;;;;;4991983;28;20058;-77
2023/02/16 05:41:10;;;;;;;5.22;3.40;;;-3.20;97.10;;;;;;4993381;28;20030;-78
2023/02/16 05:43:36;;;;;;;6.28;3.05;;;-3.20;97.10;;;;;;4993898;28;20030;-78
2023/02/16 05:46:08;;;;;;;7.65;4.00;;;-3.20;97.00;;;;;;4993389;28;20415;-78
2023/02/16 05:48:34;;;;;;;6.82;3.67;;;-3.20;97.30;;;;;;4993441;28;20148;-77
2023/02/16 05:51:00;;;;;;;5.32;3.05;;;-3.20;97.20;;;;;;4992104;28;20045;-77
2023/02/16 05:53:26;;;;;;;5.55;3.35;;;-3.30;97.50;;;;;;4992755;28;20361;-77
2023/02/16 05:55:52;;;;;;;4.80;2.95;;;-3.20;97.60;;;;;;4992759;28;20046;-78
2023/02/16 05:58:18;;;;;;;3.83;3.20;;;-3.20;97.50;;;;;;4993025;28;20420;-78
2023/02/16 06:00:44;;;;;;;5.25;2.70;;;-3.20;97.40;;;;;;4991630;28;20034;-79
2023/02/16 06:03:10;;;;;;;5.10;2.65;;;-3.30;97.50;;;;;;4992257;28;20026;-77
2023/02/16 06:05:37;;;;;;;5.18;2.75;;;-3.20;97.40;;;;;;4992513;28;20031;-76
2023/02/16 06:08:03;;;;;;;4.35;3.35;;;-3.20;97.40;;;;;;4992368;28;20538;-77
2023/02/16 06:10:30;;;;;;;8.80;4.28;;;-3.20;97.40;;;;;;4991508;28;20469;-78
2023/02/16 06:12:56;;;;;;;9.38;4.55;;;-3.30;97.30;;;;;;4988734;28;20105;-80
2023/02/16 06:15:22;;;;;;;5.85;2.30;;;-3.40;97.60;;;;;;4992419;28;20027;-79
2023/02/16 06:17:47;;;;;;;5.00;2.90;;;-3.40;97.80;;;;;;4991003;28;20026;-80
2023/02/16 06:20:16;;;;;;;6.32;3.50;;;-3.30;97.90;;;;;;4991605;28;20037;-79
2023/02/16 06:22:42;;;;;;;3.50;2.35;;;-3.20;97.80;;;;;;4990804;28;20499;-80
2023/02/16 06:25:08;;;;;;;6.43;3.08;;;-3.20;97.40;;;;;;4992309;28;20026;-77
2023/02/16 06:27:34;;;;;;;5.88;2.92;;;-3.20;97.50;;;;;;4994487;28;20019;-79
2023/02/16 06:30:01;;;;;;;8.68;3.83;;;-3.10;97.50;;;;;;4988674;28;20090;-80
2023/02/16 06:32:27;;;;;;;3.92;3.40;;;-3.00;97.30;;;;;;4993659;28;20556;-78
2023/02/16 06:34:52;;;;;;;3.85;2.70;;;-3.00;97.10;;;;;;4991236;28;20095;-77
2023/02/16 06:37:19;;;;;;;4.35;3.03;;;-3.00;97.10;;;;;;4992380;28;20392;-78
2023/02/16 06:39:44;;;;;;;4.95;3.08;;;-2.90;96.90;;;;;;4990963;28;20023;-78
2023/02/16 06:42:10;;;;;;;4.47;3.30;;;-2.80;96.60;;;;;;4992267;28;20024;-77
2023/02/16 06:44:37;;;;;;;5.63;2.85;;;-2.80;96.50;;;;;;4991418;28;20395;-78
2023/02/16 06:47:03;;;;;;;3.95;2.95;;;-2.80;96.50;;;;;;4987815;28;20029;-75
2023/02/16 06:49:29;;;;;;;3.95;2.75;;;-2.80;96.30;;;;;;4992119;28;20026;-75
2023/02/16 06:51:55;;;;;;;5.38;2.75;;;-2.70;96.40;;;;;;4992511;28;20514;-77
2023/02/16 06:54:20;;;;;;;5.53;3.03;;;-2.70;96.30;;;;;;4992084;28;20019;-78
2023/02/16 06:56:46;;;;;;;6.78;3.45;;;-2.60;96.20;;;;;;4992128;28;20050;-77
2023/02/16 06:59:12;;;;;;;4.53;3.58;;;-2.50;96.00;;;;;;4991267;28;20034;-79
2023/02/16 07:01:38;;;;;;;7.53;3.17;;;-2.50;95.90;;;;;;4991153;28;20117;-78
2023/02/16 07:04:04;;;;;;;5.15;2.92;;;-2.40;95.80;;;;;;4990648;28;20476;-77
2023/02/16 07:06:30;;;;;;;4.10;2.60;;;-2.40;95.50;;;;;;4992318;28;20050;-77
2023/02/16 07:08:55;;;;;;;2.70;2.15;;;-2.50;95.00;;;;;;4992125;28;20033;-77
2023/02/16 07:11:22;;;;;;;3.55;2.83;;;-2.60;95.00;;;;;;4991929;28;20037;-77
2023/02/16 07:13:48;;;;;;;4.80;2.35;;;-2.70;95.30;;;;;;4991442;28;20101;-78
2023/02/16 07:16:14;;;;;;;5.03;2.70;;;-2.70;95.50;;;;;;4991095;28;20101;-77
2023/02/16 07:18:40;;;;;;;4.15;2.97;;;-2.70;95.60;;;;;;4992153;28;20415;-77
2023/02/16 07:21:06;;;;;;;5.60;2.83;;;-2.70;95.40;;;;;;4990918;28;20388;-78
2023/02/16 07:23:33;;;;;;;9.52;5.32;;;-2.60;95.70;;;;;;4991987;28;20065;-78
2023/02/16 07:25:59;;;;;;;5.15;3.35;;;-2.50;95.70;;;;;;4990757;28;20042;-77
2023/02/16 07:28:25;;;;;;;3.88;2.70;;;-2.40;95.50;;;;;;4992357;28;20476;-77
2023/02/16 07:30:51;;;;;;;6.90;4.00;;;-2.30;95.20;;;;;;4992011;28;20029;-77
2023/02/16 07:33:17;;;;;;;5.82;3.35;;;-2.30;95.30;;;;;;4990963;28;20019;-77
2023/02/16 07:35:43;;;;;;;6.38;3.42;;;-2.40;95.50;;;;;;4991095;28;20062;-77
2023/02/16 07:38:09;;;;;;;6.63;3.75;;;-2.40;95.60;;;;;;4992138;28;20034;-78
2023/02/16 07:40:35;;;;;;;6.95;3.72;;;-2.30;95.50;;;;;;4990738;28;20034;-77
2023/02/16 07:43:03;;;;;;;4.35;3.95;;;-2.20;95.40;;;;;;4992022;28;20022;-79
2023/02/16 07:45:31;;;;;;;7.93;3.30;;;-2.10;95.40;;;;;;4990599;28;20038;-77
2023/02/16 07:47:57;;;;;;;5.72;3.30;;;-2.00;95.00;;;;;;4990558;28;20440;-77
2023/02/16 07:50:23;;;;;;;4.05;3.25;;;-1.90;95.10;;;;;;4992063;28;20023;-78
2023/02/16 07:52:52;;;;;;;4.40;3.28;;;-1.80;95.00;;;;;;4990894;28;20022;-78
2023/02/16 07:55:18;;;;;;;4.18;2.90;;;-1.70;94.90;;;;;;4991858;28;20027;-76
2023/02/16 07:57:48;;;;;;;6.90;4.03;;;-1.80;94.10;;;;;;4992078;28;20032;-78
2023/02/16 08:00:14;;;;;;;4.35;3.13;;;-1.90;94.30;;;;;;4992188;28;20023;-77
2023/02/16 08:02:40;;;;;;;5.20;2.80;;;-2.10;94.50;;;;;;4992015;28;20023;-76
2023/02/16 08:05:06;;;;;;;3.33;2.97;;;-2.00;94.70;;;;;;4990389;28;20407;-75
2023/02/16 08:07:32;;;;;;;6.90;3.60;;;-1.90;94.80;;;;;;4991911;28;20501;-78
2023/02/16 08:09:59;;;;;;;7.30;4.28;;;-1.80;94.70;;;;;;4990805;28;20030;-77
2023/02/16 08:12:27;;;;;;;3.33;2.95;;;-1.60;94.50;;;;;;4991674;28;20038;-77
2023/02/16 08:14:53;;;;;;;6.00;4.22;;;-1.40;94.40;;;;;;4991822;28;20132;-78
2023/02/16 08:17:19;;;;;;;5.05;3.65;;;-1.40;93.30;;;;;;4991488;28;20022;-78
2023/02/16 08:19:45;;;;;;;4.72;3.30;;;-1.40;93.70;;;;;;4991604;28;20117;-78
2023/02/16 08:22:11;;;;;;;6.38;4.75;;;-1.30;93.60;;;;;;4991198;28;20500;-77
2023/02/16 08:24:36;;;;;;;6.50;3.83;;;-1.40;93.40;;;;;;4992003;28;20030;-78
2023/02/16 08:27:04;;;;;;;5.40;3.25;;;-1.40;93.70;;;;;;4992678;28;20030;-77
2023/02/16 08:29:31;;;;;;;;;;;-1.40;93.60;;;;;;4995794;28;20574;-76
2023/02/16 08:31:57;;;;;;;5.38;3.47;;;-1.40;93.70;;;;;;4992918;28;19945;-77
2023/02/16 08:34:23;;;;;;;9.10;4.07;;;-1.50;93.20;;;;;;4995268;28;20127;-78
2023/02/16 08:36:55;;;;;;;4.15;3.20;;;-1.60;93.20;;;;;;4996333;28;20023;-76
2023/02/16 08:39:29;;;;;;;6.72;4.47;;;-1.60;93.20;;;;;;4995350;28;20030;-77
2023/02/16 08:41:55;;;;;;;8.77;4.50;;;-1.80;93.20;;;;;;4995724;28;20046;-77
2023/02/16 08:44:23;;;;;;;5.18;3.33;;;-1.90;93.60;;;;;;4994895;28;20026;-77
2023/02/16 08:46:51;;;;;;;7.75;4.68;;;-2.00;93.90;;;;;;4994747;28;20484;-78
2023/02/16 08:49:20;;;;;;;6.13;5.07;;;-2.10;94.30;;;;;;4993454;28;20037;-77
2023/02/16 08:51:49;;;;;;;7.05;4.38;;;-2.00;94.40;;;;;;4994507;28;20105;-78
2023/02/16 08:54:25;;;;;;;6.43;4.13;;;-2.00;94.50;;;;;;4994435;28;20028;-78
2023/02/16 08:56:52;;;;;;;7.43;4.38;;;-1.90;94.50;;;;;;4994201;28;20053;-76
2023/02/16 08:59:20;;;;;;;5.35;4.22;;;-1.70;94.40;;;;;;4994378;28;20061;-78
2023/02/16 09:01:46;;;;;;;6.90;4.47;;;-1.60;94.10;;;;;;4993123;28;20391;-78
2023/02/16 09:04:13;;;;;;;8.73;5.35;;;-1.50;94.00;;;;;;4992895;28;20089;-78
2023/02/16 09:06:43;;;;;;;7.88;5.15;;;-1.50;93.80;;;;;;4993198;28;20054;-78
2023/02/16 09:09:10;;;;;;;5.63;4.60;;;-1.40;93.60;;;;;;4992971;28;20423;-77
2023/02/16 09:11:36;;;;;;;6.00;3.88;;;-1.40;93.30;;;;;;4994245;28;20412;-77
2023/02/16 09:14:03;;;;;;;13.18;5.28;;;-1.20;93.10;;;;;;4994136;28;20073;-77
2023/02/16 09:16:33;;;;;;;6.97;4.65;;;-1.10;93.00;;;;;;4993165;28;20026;-78
2023/02/16 09:19:02;;;;;;;9.57;5.93;;;-0.90;93.10;;;;;;4994181;28;20018;-77
2023/02/16 09:21:33;;;;;;;6.32;4.68;;;-0.20;93.60;;;;;;4994142;28;20476;-77
2023/02/16 09:24:03;;;;;;;7.07;4.78;;;0.80;91.90;;;;;;4992891;28;20014;-78
2023/02/16 09:26:38;;;;;;;9.40;5.40;;;1.00;89.70;;;;;;4994178;28;20030;-77
2023/02/16 09:29:05;;;;;;;7.63;4.10;;;1.10;90.40;;;;;;4994298;28;20050;-78
2023/02/16 09:31:34;;;;;;;7.78;4.57;;;1.40;89.50;;;;;;4993970;28;20030;-77
2023/02/16 09:34:04;;;;;;;7.13;3.88;;;1.50;86.70;;;;;;4993932;28;20019;-76
2023/02/16 09:36:30;;;;;;;6.10;3.80;;;0.90;84.60;;;;;;4992338;28;20034;-78
2023/02/16 09:38:58;;;;;;;4.15;3.75;;;0.50;86.20;;;;;;4992983;28;20026;-78
2023/02/16 09:42:05;;;;;;;6.68;4.20;;;0.30;86.00;;;;;;4994074;28;20472;-77
2023/02/16 09:44:49;;;;;;;4.38;2.85;;;-0.10;86.50;;;;;;4993442;28;20022;-78
2023/02/16 09:47:38;;;;;;;3.80;2.78;;;-0.40;86.50;;;;;;4992532;28;20442;-78
2023/02/16 09:50:20;;;;;;;4.22;2.97;;;-0.60;87.10;;;;;;4993611;28;20018;-78
2023/02/16 09:52:53;;;;;;;5.07;3.65;;;-0.70;87.70;;;;;;4993722;28;20027;-77
2023/02/16 09:55:23;;;;;;;6.45;3.30;;;-0.90;87.50;;;;;;4992176;28;20487;-78
2023/02/16 09:58:15;;;;;;;7.30;3.95;;;-0.90;87.70;;;;;;4993353;28;20022;-78
2023/02/16 10:00:54;;;;;;;4.47;3.05;;;-1.00;88.30;;;;;;4993616;28;20014;-78
2023/02/16 10:03:20;;;;;;;5.57;3.38;;;-1.10;88.50;;;;;;4993351;28;20109;-77
2023/02/16 10:06:04;;;;;;;4.88;3.22;;;-1.20;87.80;;;;;;4993130;28;20126;-77
2023/02/16 10:08:37;;;;;;;5.93;3.17;;;-1.20;88.50;;;;;;4993478;28;20042;-77
2023/02/16 10:14:07;;;;;;;4.07;2.95;;;-1.30;89.50;;;;;;4993508;28;20457;-78
2023/02/16 10:16:40;;;;;;;7.68;4.47;;;-1.40;89.50;;;;;;4993198;28;20069;-77
2023/02/16 10:19:54;;;;;;;7.18;3.72;;;-1.50;90.10;;;;;;4993102;28;20046;-77
2023/02/16 10:22:40;;;;;;;7.35;4.05;;;-1.60;90.10;;;;;;4982775;28;20107;-77
2023/02/16 10:25:36;;;;;;;5.65;3.28;;;-1.50;90.00;;;;;;4985678;28;20121;-78
2023/02/16 10:28:28;;;;;;;4.15;3.45;;;-1.50;90.10;;;;;;4992826;28;20109;-77
2023/02/16 10:31:01;;;;;;;4.85;2.72;;;-1.40;89.60;;;;;;4992789;28;20368;-78
2023/02/16 10:33:43;;;;;;;3.85;2.90;;;-1.40;88.70;;;;;;4992847;28;20026;-77
2023/02/16 10:37:08;;;;;;;5.18;3.55;;;-1.40;88.60;;;;;;4992654;28;20018;-77
2023/02/16 10:40:01;;;;;;;4.18;2.88;;;-1.40;88.40;;;;;;4951866;29;20019;-77
2023/02/16 10:42:40;;;;;;;5.07;2.55;;;-1.40;88.00;;;;;;4951839;29;20045;-77
2023/02/16 10:45:29;;;;;;;5.28;2.30;;;-1.50;87.70;;;;;;4976094;28;20086;-78
2023/02/16 10:47:55;;;;;;;5.32;2.80;;;-1.70;87.60;;;;;;4990782;28;20026;-78
2023/02/16 10:50:45;;;;;;;4.57;3.10;;;-1.80;88.00;;;;;;4992643;28;20025;-78
2023/02/16 10:53:28;;;;;;;4.72;3.58;;;-1.90;88.30;;;;;;4992613;28;20053;-77
2023/02/16 10:55:56;;;;;;;5.03;2.88;;;-2.00;88.70;;;;;;4992528;28;20070;-77
2023/02/16 10:58:26;;;;;;;4.43;2.40;;;-1.90;89.00;;;;;;4992670;28;20058;-78
2023/02/16 11:01:18;;;;;;;5.13;2.97;;;-1.90;89.10;;;;;;4988474;28;20222;-77
2023/02/16 11:03:47;;;;;;;6.35;2.88;;;-2.00;89.30;;;;;;4981315;28;20014;-77
2023/02/16 11:06:15;;;;;;;4.57;2.80;;;-1.90;89.00;;;;;;4992454;28;20045;-77
2023/02/16 11:08:56;;;;;;;4.20;3.15;;;-1.80;87.60;;;;;;4992654;28;20030;-77
2023/02/16 11:11:39;;;;;;;4.32;2.67;;;-1.70;87.30;;;;;;4991214;28;20034;-78
2023/02/16 11:14:20;;;;;;;4.60;2.90;;;-1.60;86.10;;;;;;4992461;28;20030;-78
2023/02/16 11:16:47;;;;;;;4.40;3.15;;;-1.50;86.20;;;;;;4991430;28;20030;-78
2023/02/16 11:19:23;;;;;;;2.05;1.80;;;-1.30;84.50;;;;;;4992275;28;20022;-77
2023/02/16 11:21:54;;;;;;;2.67;1.95;;;-1.40;82.20;;;;;;4992770;28;20054;-77
2023/02/16 11:24:37;;;;;;;4.55;2.50;;;-1.50;82.20;;;;;;4992514;28;20159;-78
2023/02/16 11:27:16;;;;;;;3.20;2.40;;;-1.50;82.70;;;;;;4992559;28;20076;-77
2023/02/16 11:29:41;;;;;;;5.18;2.33;;;-1.40;82.70;;;;;;4992391;28;20030;-78
2023/02/16 11:32:09;;;;;;;5.05;3.25;;;-1.30;82.30;;;;;;4990093;28;20038;-77
2023/02/16 11:34:43;;;;;;;5.63;3.47;;;-1.30;82.60;;;;;;4990910;28;20034;-78
2023/02/16 11:37:31;;;;;;;3.95;3.28;;;-1.10;82.60;;;;;;4990803;28;20022;-77
2023/02/16 11:40:08;;;;;;;4.50;2.97;;;-1.20;82.00;;;;;;4992261;28;20026;-78
2023/02/16 11:42:46;;;;;;;4.80;3.30;;;-1.20;82.60;;;;;;4991866;28;20026;-76
2023/02/16 11:45:24;;;;;;;3.97;2.85;;;-1.10;82.80;;;;;;4990582;28;20401;-77
2023/02/16 11:48:01;;;;;;;6.47;3.63;;;-1.20;82.40;;;;;;4990324;28;20080;-78
2023/02/16 11:50:27;;;;;;;4.65;3.28;;;-1.20;82.80;;;;;;4990760;28;20057;-77
2023/02/16 11:53:21;;;;;;;3.60;2.60;;;-1.20;83.10;;;;;;4991835;28;20030;-77
2023/02/16 11:55:48;;;;;;;5.18;4.03;;;-1.20;83.30;;;;;;4991950;28;20077;-77
2023/02/16 11:58:26;;;;;;;6.78;3.85;;;-1.40;83.30;;;;;;4991899;28;20223;-77
2023/02/16 12:01:16;;;;;;;6.63;4.05;;;-1.40;84.30;;;;;;4994680;28;20487;-78
2023/02/16 12:03:51;;;;;;;5.97;3.83;;;-1.50;84.60;;;;;;4993484;28;20027;-77
2023/02/16 12:06:59;;;;;;;4.43;3.42;;;-1.50;84.80;;;;;;4995366;28;20034;-77
2023/02/16 12:09:57;;;;;;;5.07;3.30;;;-1.50;85.20;;;;;;4995540;28;20061;-78
2023/02/16 12:12:49;;;;;;;6.60;4.28;;;-1.50;85.30;;;;;;4960040;28;20041;-78
2023/02/16 12:15:34;;;;;;;5.60;3.92;;;-1.60;85.70;;;;;;4994295;28;20499;-77
2023/02/16 12:18:16;;;;;;;8.55;4.45;;;-1.70;86.40;;;;;;4994444;28;20026;-77
2023/02/16 12:20:54;;;;;;;9.30;4.40;;;-1.80;86.90;;;;;;4995300;28;20026;-77
2023/02/16 12:24:05;;;;;;;7.95;4.20;;;-1.90;86.80;;;;;;4993194;28;20041;-77
2023/02/16 12:26:45;;;;;;;7.07;4.25;;;-1.90;86.90;;;;;;4985396;28;20146;-77
2023/02/16 12:29:27;;;;;;;6.50;4.57;;;-1.90;87.10;;;;;;4995194;28;20029;-78
2023/02/16 12:32:06;;;;;;;10.55;4.75;;;-1.90;86.40;;;;;;4995128;28;20031;-77
2023/02/16 12:34:48;;;;;;;5.78;3.65;;;-1.90;86.50;;;;;;4995124;28;20022;-77
2023/02/16 12:37:40;;;;;;;4.97;3.55;;;-1.90;85.80;;;;;;4993842;28;20483;-77
2023/02/16 12:40:41;;;;;;;6.38;3.83;;;-1.90;85.10;;;;;;4978502;28;20062;-78
2023/02/16 12:43:37;;;;;;;9.38;4.22;;;-1.90;84.80;;;;;;4985929;28;20510;-76
2023/02/16 12:46:22;;;;;;;4.70;3.23;;;-1.90;85.00;;;;;;4993931;28;20046;-75
2023/02/16 12:48:54;;;;;;;4.07;3.00;;;-1.90;84.60;;;;;;4995457;28;20026;-77
2023/02/16 12:51:29;;;;;;;5.82;3.72;;;-2.00;84.10;;;;;;4994948;28;20517;-78
2023/02/16 12:54:01;;;;;;;8.88;4.40;;;-2.10;84.60;;;;;;4994608;28;20105;-77
2023/02/16 12:56:43;;;;;;;5.45;3.70;;;-2.10;85.10;;;;;;4993547;28;20046;-77
2023/02/16 12:59:22;;;;;;;4.70;3.60;;;-2.10;85.10;;;;;;4994736;28;20039;-78
2023/02/16 13:01:51;;;;;;;6.22;3.70;;;-2.00;85.10;;;;;;4994930;28;20026;-77
2023/02/16 13:04:39;;;;;;;6.28;4.32;;;-2.00;84.70;;;;;;4994627;28;20030;-77
2023/02/16 13:07:15;;;;;;;5.57;4.05;;;-2.00;83.60;;;;;;4994781;28;20058;-77
2023/02/16 13:09:48;;;;;;;5.82;3.75;;;-2.00;83.30;;;;;;4994536;28;20029;-78
2023/02/16 13:12:35;;;;;;;6.70;4.07;;;-2.00;83.30;;;;;;4992693;28;20108;-77
2023/02/16 13:15:13;;;;;;;5.50;3.92;;;-1.90;83.10;;;;;;4994877;28;20019;-78
2023/02/16 13:17:43;;;;;;;5.72;4.63;;;-1.90;82.80;;;;;;4993151;28;20037;-77
2023/02/16 13:20:15;;;;;;;8.48;4.07;;;-1.90;83.00;;;;;;4994368;28;20054;-78
2023/02/16 13:23:10;;;;;;;7.28;4.00;;;-1.90;82.70;;;;;;4994202;28;20028;-77
2023/02/16 13:26:11;;;;;;;4.95;4.35;;;-1.90;82.60;;;;;;4993983;28;20034;-76
2023/02/16 13:28:40;;;;;;;5.30;3.97;;;-1.90;82.40;;;;;;4971761;28;20035;-77
2023/02/16 13:31:11;;;;;;;5.00;4.20;;;-1.80;82.20;;;;;;4992973;28;20502;-77
2023/02/16 13:34:07;;;;;;;8.80;6.20;;;-1.80;82.10;;;;;;4994112;28;20018;-79
2023/02/16 13:37:01;;;;;;;10.05;5.00;;;-1.90;82.60;;;;;;4993979;28;20129;-77
2023/02/16 13:40:19;;;;;;;7.93;5.30;;;-1.80;82.70;;;;;;4994138;28;20049;-78
2023/02/16 13:43:26;;;;;;;7.03;5.00;;;-1.90;82.20;;;;;;4993753;28;20069;-76
2023/02/16 13:45:53;;;;;;;8.35;6.00;;;-1.90;82.80;;;;;;4951987;28;20070;-78
2023/02/16 13:48:35;;;;;;;12.52;5.80;;;-2.00;83.20;;;;;;4952948;29;20432;-77
2023/02/16 13:51:10;;;;;;;14.05;4.43;;;-2.00;83.20;;;;;;4977411;28;20093;-77
2023/02/16 13:53:40;;;;;;;8.10;4.40;;;-2.10;83.20;;;;;;4993774;28;20029;-78
2023/02/16 13:56:21;;;;;;;11.48;5.63;;;-2.10;83.30;;;;;;4993321;28;20053;-79
2023/02/16 13:58:48;;;;;;;7.75;5.15;;;-2.10;83.20;;;;;;4993571;28;20384;-77
2023/02/16 14:01:37;;;;;;;7.28;4.03;;;-2.20;83.20;;;;;;4992396;28;20030;-78